createdAt,value
2018-09-17T00:01:54.371Z,15.00
2018-09-17T00:05:57.688Z,14.90
2018-09-17T00:10:01.027Z,14.80
2018-09-17T00:14:04.384Z,14.80
2018-09-17T00:18:07.895Z,14.70
2018-09-17T00:22:11.211Z,14.60
2018-09-17T00:26:14.694Z,14.60
2018-09-17T00:30:18.008Z,14.50
2018-09-17T00:34:21.913Z,14.40
2018-09-17T00:38:25.656Z,14.40
2018-09-17T00:42:28.968Z,14.30
2018-09-17T00:46:32.315Z,14.20
2018-09-17T00:50:35.918Z,14.20
2018-09-17T00:54:39.243Z,14.10
2018-09-17T00:58:42.552Z,14.10
2018-09-17T01:02:45.895Z,14.00
2018-09-17T01:06:49.315Z,13.90
2018-09-17T01:10:52.875Z,13.90
2018-09-17T01:14:56.186Z,13.80
2018-09-17T01:18:59.489Z,13.80
2018-09-17T01:23:02.813Z,13.70
2018-09-17T01:27:06.154Z,13.60
2018-09-17T01:31:09.523Z,13.60
2018-09-17T01:35:12.843Z,13.50
2018-09-17T01:39:16.186Z,13.50
2018-09-17T01:43:19.736Z,13.50
2018-09-17T01:47:23.078Z,13.40
2018-09-17T01:51:26.427Z,13.40
2018-09-17T01:55:29.779Z,13.30
2018-09-17T01:59:33.121Z,13.30
2018-09-17T02:03:36.495Z,13.20
2018-09-17T02:07:39.840Z,13.20
2018-09-17T02:11:43.254Z,13.20
2018-09-17T02:15:46.593Z,13.10
2018-09-17T02:19:49.918Z,13.10
2018-09-17T02:23:53.230Z,13.00
2018-09-17T02:27:56.563Z,13.00
2018-09-17T02:31:59.912Z,13.00
2018-09-17T02:36:03.284Z,12.90
2018-09-17T02:40:10.847Z,12.90
2018-09-17T02:44:14.266Z,12.90
2018-09-17T02:48:17.629Z,12.90
2018-09-17T02:52:20.962Z,12.80
2018-09-17T02:56:24.294Z,12.80
2018-09-17T03:00:27.599Z,12.80
2018-09-17T03:04:30.935Z,12.80
2018-09-17T03:08:34.354Z,12.80
2018-09-17T03:12:37.683Z,12.70
2018-09-17T03:16:52.351Z,12.70
2018-09-17T03:20:55.727Z,12.70
2018-09-17T03:24:59.064Z,12.60
2018-09-17T03:29:02.424Z,12.60
2018-09-17T03:33:05.765Z,12.60
2018-09-17T03:37:09.130Z,12.60
2018-09-17T03:41:13.294Z,12.60
2018-09-17T03:45:16.624Z,12.60
2018-09-17T03:49:19.966Z,12.70
2018-09-17T03:53:23.325Z,12.70
2018-09-17T03:57:26.668Z,12.70
2018-09-17T04:01:29.968Z,12.60
2018-09-17T04:05:33.493Z,12.60
2018-09-17T04:09:36.875Z,12.60
2018-09-17T04:13:40.219Z,12.60
2018-09-17T04:17:43.561Z,12.60
2018-09-17T04:21:46.890Z,12.50
2018-09-17T04:25:50.229Z,12.60
2018-09-17T04:29:53.575Z,12.60
2018-09-17T04:33:56.911Z,12.50
2018-09-17T04:38:00.244Z,12.50
2018-09-17T04:42:03.828Z,12.50
2018-09-17T04:46:07.159Z,12.50
2018-09-17T04:50:10.840Z,12.40
2018-09-17T04:54:14.216Z,12.40
2018-09-17T04:58:17.576Z,12.40
2018-09-17T05:02:20.935Z,12.40
2018-09-17T05:06:24.275Z,12.40
2018-09-17T05:10:27.656Z,12.40
2018-09-17T05:14:31.007Z,12.40
2018-09-17T05:18:34.375Z,12.30
2018-09-17T05:22:37.711Z,12.30
2018-09-17T05:26:41.112Z,12.30
2018-09-17T05:30:44.442Z,12.30
2018-09-17T05:34:47.813Z,12.40
2018-09-17T05:38:51.169Z,12.40
2018-09-17T05:42:54.542Z,12.40
2018-09-17T05:46:57.879Z,12.40
2018-09-17T05:51:01.250Z,12.50
2018-09-17T05:55:05.500Z,12.50
2018-09-17T05:59:08.869Z,12.50
2018-09-17T06:03:12.220Z,12.60
2018-09-17T06:07:15.564Z,12.70
2018-09-17T06:11:18.978Z,12.80
2018-09-17T06:15:22.291Z,12.90
2018-09-17T06:19:25.719Z,13.00
2018-09-17T06:23:29.060Z,13.10
2018-09-17T06:27:32.391Z,13.20
2018-09-17T06:31:35.735Z,13.30
2018-09-17T06:35:39.059Z,13.40
2018-09-17T06:39:42.511Z,13.50
2018-09-17T06:43:45.837Z,13.60
2018-09-17T06:47:49.145Z,13.70
2018-09-17T06:51:52.853Z,13.80
2018-09-17T06:55:56.206Z,13.90
2018-09-17T06:59:59.534Z,14.00
2018-09-17T07:04:02.857Z,14.10
2018-09-17T07:08:06.194Z,14.20
2018-09-17T07:12:09.571Z,14.30
2018-09-17T07:16:12.898Z,14.40
2018-09-17T07:20:16.226Z,14.60
2018-09-17T07:24:19.571Z,14.80
2018-09-17T07:28:23.174Z,15.00
2018-09-17T07:32:26.534Z,15.20
2018-09-17T07:36:30.149Z,15.50
2018-09-17T07:40:33.478Z,15.70
2018-09-17T07:44:36.842Z,16.10
2018-09-17T07:48:40.170Z,16.40
2018-09-17T07:52:43.505Z,16.70
2018-09-17T07:56:46.845Z,17.00
2018-09-17T08:00:50.188Z,17.30
2018-09-17T08:04:53.519Z,17.60
2018-09-17T08:08:56.900Z,17.90
2018-09-17T08:13:00.287Z,18.10
2018-09-17T08:17:03.748Z,18.40
2018-09-17T08:21:07.148Z,18.60
2018-09-17T08:25:10.861Z,18.80
2018-09-17T08:29:14.194Z,19.00
2018-09-17T08:33:17.660Z,19.20
2018-09-17T08:37:21.014Z,19.40
2018-09-17T08:41:24.415Z,19.60
2018-09-17T08:45:27.825Z,19.90
2018-09-17T08:49:31.117Z,20.10
2018-09-17T08:53:34.455Z,20.30
2018-09-17T08:57:45.256Z,20.60
2018-09-17T09:01:54.072Z,20.90
2018-09-17T09:06:02.863Z,21.10
2018-09-17T09:10:11.722Z,21.40
2018-09-17T09:18:23.527Z,21.80
2018-09-17T09:22:26.854Z,22.00
2018-09-17T09:26:30.175Z,22.20
2018-09-17T09:30:33.486Z,22.40
2018-09-17T09:34:36.811Z,22.60
2018-09-17T09:38:40.168Z,22.80
2018-09-17T09:42:44.338Z,23.00
2018-09-17T09:46:47.691Z,23.20
2018-09-17T09:50:51.128Z,23.40
2018-09-17T09:54:54.474Z,23.60
2018-09-17T09:58:57.812Z,23.80
2018-09-17T10:03:01.714Z,23.90
2018-09-17T10:07:05.116Z,24.20
2018-09-17T10:11:13.895Z,24.30
2018-09-17T10:15:21.474Z,24.50
2018-09-17T10:19:25.584Z,24.70
2018-09-17T10:23:28.912Z,24.80
2018-09-17T10:27:32.251Z,24.90
2018-09-17T10:31:35.583Z,25.00
2018-09-17T10:35:38.907Z,25.00
2018-09-17T10:39:42.410Z,25.10
2018-09-17T10:43:45.765Z,25.30
2018-09-17T10:47:49.100Z,25.30
2018-09-17T10:51:52.463Z,25.40
2018-09-17T10:55:55.793Z,25.40
2018-09-17T10:59:59.106Z,25.50
2018-09-17T11:04:02.460Z,25.60
2018-09-17T11:08:05.831Z,25.70
2018-09-17T11:12:09.164Z,25.80
2018-09-17T11:16:12.503Z,25.90
2018-09-17T11:20:15.837Z,26.20
2018-09-17T11:28:22.264Z,26.40
2018-09-17T11:32:25.680Z,26.50
2018-09-17T11:36:29.015Z,26.70
2018-09-17T11:40:32.434Z,26.80
2018-09-17T11:44:35.782Z,26.90
2018-09-17T11:48:39.093Z,27.10
2018-09-17T11:52:42.415Z,27.20
2018-09-17T11:56:45.792Z,27.30
2018-09-17T12:00:54.562Z,27.40
2018-09-17T12:05:03.109Z,27.50
2018-09-17T12:09:08.400Z,27.60
2018-09-17T12:13:11.767Z,27.70
2018-09-17T12:17:15.122Z,27.70
2018-09-17T12:21:18.498Z,27.70
2018-09-17T12:25:21.820Z,27.80
2018-09-17T12:29:25.150Z,27.80
2018-09-17T12:33:28.525Z,27.80
2018-09-17T12:37:31.846Z,28.00
2018-09-17T12:41:35.230Z,28.00
2018-09-17T12:45:38.586Z,28.10
2018-09-17T12:49:41.922Z,28.10
2018-09-17T12:53:45.269Z,28.10
2018-09-17T12:57:48.612Z,28.10
2018-09-17T13:01:51.949Z,28.10
2018-09-17T13:05:55.299Z,28.10
2018-09-17T13:09:58.656Z,28.00
2018-09-17T13:14:01.992Z,27.90
2018-09-17T13:18:05.461Z,27.80
2018-09-17T13:22:08.807Z,27.70
2018-09-17T13:26:12.140Z,27.60
2018-09-17T13:30:15.579Z,27.40
2018-09-17T13:34:18.919Z,27.30
2018-09-17T13:38:22.256Z,27.30
2018-09-17T13:42:25.630Z,27.30
2018-09-17T13:46:28.981Z,27.30
2018-09-17T13:50:32.339Z,27.30
2018-09-17T13:54:35.701Z,27.30
2018-09-17T13:58:39.036Z,27.30
2018-09-17T14:02:42.393Z,27.30
2018-09-17T14:06:45.751Z,27.30
2018-09-17T14:10:49.364Z,27.30
2018-09-17T14:14:52.735Z,27.30
2018-09-17T14:18:56.096Z,27.30
2018-09-17T14:22:59.498Z,27.30
2018-09-17T14:27:02.975Z,27.30
2018-09-17T14:31:06.492Z,27.30
2018-09-17T14:35:10.041Z,27.40
2018-09-17T14:39:13.350Z,27.60
2018-09-17T14:43:16.717Z,27.60
2018-09-17T14:47:20.084Z,27.70
2018-09-17T14:51:23.450Z,27.70
2018-09-17T14:55:26.890Z,27.70
2018-09-17T14:59:30.226Z,27.90
2018-09-17T15:03:33.602Z,27.80
2018-09-17T15:07:37.052Z,27.80
2018-09-17T15:15:45.768Z,27.80
2018-09-17T15:19:49.211Z,27.90
2018-09-17T15:23:52.626Z,28.10
2018-09-17T15:27:55.994Z,28.20
2018-09-17T15:31:59.335Z,28.40
2018-09-17T15:36:02.873Z,28.70
2018-09-17T15:40:07.255Z,28.80
2018-09-17T15:44:11.151Z,29.00
2018-09-17T15:48:14.439Z,29.20
2018-09-17T15:52:17.914Z,29.20
2018-09-17T15:56:21.267Z,29.20
2018-09-17T16:00:24.652Z,29.30
2018-09-17T16:04:28.007Z,29.20
2018-09-17T16:08:31.480Z,29.20
2018-09-17T16:12:34.850Z,29.10
2018-09-17T16:16:38.163Z,29.10
2018-09-17T16:20:41.533Z,29.00
2018-09-17T16:24:44.975Z,29.00
2018-09-17T16:28:48.386Z,28.80
2018-09-17T16:32:51.715Z,28.70
2018-09-17T16:36:55.036Z,28.60
2018-09-17T16:40:58.378Z,28.40
2018-09-17T16:45:01.744Z,28.20
2018-09-17T16:49:05.125Z,28.10
2018-09-17T16:53:08.478Z,27.90
2018-09-17T16:57:11.797Z,27.70
2018-09-17T17:01:15.139Z,27.50
2018-09-17T17:05:18.644Z,27.30
2018-09-17T17:09:21.943Z,27.20
2018-09-17T17:13:25.292Z,27.00
2018-09-17T17:17:28.602Z,26.80
2018-09-17T17:21:31.939Z,26.60
2018-09-17T17:25:41.874Z,26.40
2018-09-17T17:29:45.195Z,26.20
2018-09-17T17:33:48.603Z,26.00
2018-09-17T17:37:51.875Z,25.70
2018-09-17T17:41:55.269Z,25.50
2018-09-17T17:45:58.720Z,25.30
2018-09-17T17:50:02.129Z,25.10
2018-09-17T17:54:05.537Z,24.90
2018-09-17T17:58:11.884Z,24.60
2018-09-17T18:02:15.308Z,24.50
2018-09-17T18:06:18.692Z,24.30
2018-09-17T18:10:22.120Z,24.10
2018-09-17T18:14:25.480Z,23.90
2018-09-17T18:18:28.892Z,23.70
2018-09-17T18:22:32.328Z,23.50
2018-09-17T18:26:35.748Z,23.30
2018-09-17T18:30:39.173Z,23.20
2018-09-17T18:34:44.203Z,23.00
2018-09-17T18:38:47.657Z,22.80
2018-09-17T18:42:51.097Z,22.60
2018-09-17T18:46:54.737Z,22.50
2018-09-17T18:50:58.255Z,22.30
2018-09-17T18:55:01.680Z,22.20
2018-09-17T18:59:05.134Z,22.00
2018-09-17T19:03:08.638Z,21.90
2018-09-17T19:07:12.024Z,21.80
2018-09-17T19:11:15.459Z,21.70
2018-09-17T19:15:24.265Z,21.50
2018-09-17T19:19:27.721Z,21.40
2018-09-17T19:23:36.505Z,21.10
2018-09-17T19:27:45.166Z,21.00
2018-09-17T19:31:48.906Z,20.90
2018-09-17T19:35:52.309Z,20.80
2018-09-17T19:40:16.933Z,20.60
2018-09-17T19:44:20.266Z,20.50
2018-09-17T19:48:24.310Z,20.40
2018-09-17T19:52:27.810Z,20.20
2018-09-17T19:56:31.317Z,20.10
2018-09-17T20:00:34.791Z,20.00
2018-09-17T20:04:43.470Z,19.90
2018-09-17T20:08:46.847Z,19.80
2018-09-17T20:12:50.222Z,19.70
2018-09-17T20:16:53.567Z,19.60
2018-09-17T20:20:56.987Z,19.50
2018-09-17T20:25:07.812Z,19.40
2018-09-17T20:29:11.187Z,19.40
2018-09-17T20:33:14.565Z,19.20
2018-09-17T20:37:17.963Z,19.10
2018-09-17T20:41:21.379Z,19.00
2018-09-17T20:45:24.751Z,18.90
2018-09-17T20:49:28.122Z,18.80
2018-09-17T20:53:31.483Z,18.70
2018-09-17T20:57:35.000Z,18.60
2018-09-17T21:01:38.386Z,18.50
2018-09-17T21:05:41.759Z,18.50
2018-09-17T21:09:45.107Z,18.30
2018-09-17T21:13:48.468Z,18.30
2018-09-17T21:17:51.839Z,18.20
2018-09-17T21:21:55.344Z,18.10
2018-09-17T21:25:58.976Z,18.10
2018-09-17T21:30:02.451Z,18.00
2018-09-17T21:34:06.091Z,17.90
2018-09-17T21:38:09.492Z,17.90
2018-09-17T21:42:12.902Z,17.80
2018-09-17T21:46:16.587Z,17.70
2018-09-17T21:50:22.907Z,17.70
2018-09-17T21:54:26.232Z,17.60
2018-09-17T21:58:29.560Z,17.60
2018-09-17T22:02:32.970Z,17.50
2018-09-17T22:06:36.484Z,17.40
2018-09-17T22:10:39.955Z,17.40
2018-09-17T22:14:43.300Z,17.30
2018-09-17T22:18:46.687Z,17.20
2018-09-17T22:22:50.057Z,17.20
2018-09-17T22:26:53.364Z,17.10
2018-09-17T22:30:56.673Z,17.00
2018-09-17T22:35:00.016Z,17.00
2018-09-17T22:39:04.631Z,16.90
2018-09-17T22:43:07.963Z,16.90
2018-09-17T22:47:11.316Z,16.80
2018-09-17T22:51:14.694Z,16.70
2018-09-17T22:55:18.010Z,16.70
2018-09-17T22:59:21.392Z,16.60
2018-09-17T23:03:24.711Z,16.50
2018-09-17T23:07:28.039Z,16.40
2018-09-17T23:11:31.390Z,16.40
2018-09-17T23:15:34.747Z,16.30
2018-09-17T23:19:38.071Z,16.30
2018-09-17T23:23:41.441Z,16.20
2018-09-17T23:27:44.750Z,16.20
2018-09-17T23:31:48.107Z,16.10
2018-09-17T23:35:51.436Z,16.10
2018-09-17T23:39:54.759Z,16.00
2018-09-17T23:43:58.091Z,16.00
2018-09-17T23:48:01.449Z,15.90
2018-09-17T23:52:04.792Z,15.90
2018-09-17T23:56:08.147Z,15.90
